createdAt,value
2022-12-05T00:01:39.495Z,21.50
2022-12-05T00:04:10.214Z,21.55
2022-12-05T00:06:42.046Z,21.60
2022-12-05T00:09:12.154Z,21.67
2022-12-05T00:11:44.211Z,21.69
2022-12-05T00:14:14.077Z,21.74
2022-12-05T00:16:44.278Z,21.74
2022-12-05T00:19:15.037Z,21.77
2022-12-05T00:21:43.727Z,21.82
2022-12-05T00:24:15.285Z,21.82
2022-12-05T00:26:43.984Z,21.80
2022-12-05T00:29:13.175Z,21.79
2022-12-05T00:31:41.981Z,21.59
2022-12-05T00:34:10.859Z,21.27
2022-12-05T00:36:39.001Z,21.18
2022-12-05T00:39:11.418Z,21.12
2022-12-05T00:41:39.590Z,21.09
2022-12-05T00:44:08.443Z,21.05
2022-12-05T00:46:37.166Z,21.02
2022-12-05T00:49:07.346Z,21.05
2022-12-05T00:51:39.103Z,21.12
2022-12-05T00:54:10.407Z,21.15
2022-12-05T00:56:39.200Z,21.18
2022-12-05T00:59:08.119Z,21.16
2022-12-05T01:01:41.951Z,21.12
2022-12-05T01:04:22.876Z,21.06
2022-12-05T01:06:54.229Z,20.97
2022-12-05T01:09:22.822Z,20.96
2022-12-05T01:11:51.704Z,20.94
2022-12-05T01:14:23.262Z,20.93
2022-12-05T01:16:53.624Z,20.94
2022-12-05T01:19:24.913Z,20.93
2022-12-05T01:21:54.143Z,20.93
2022-12-05T01:24:24.877Z,20.93
2022-12-05T01:26:54.360Z,20.96
2022-12-05T01:29:24.225Z,20.98
2022-12-05T01:31:53.514Z,20.97
2022-12-05T01:34:22.197Z,20.87
2022-12-05T01:36:50.271Z,20.85
2022-12-05T01:39:19.062Z,20.84
2022-12-05T01:41:50.006Z,20.89
2022-12-05T01:44:18.079Z,20.91
2022-12-05T01:46:52.205Z,20.86
2022-12-05T01:49:25.988Z,20.83
2022-12-05T01:51:58.863Z,20.76
2022-12-05T01:54:27.032Z,20.78
2022-12-05T01:57:08.340Z,20.78
2022-12-05T01:59:41.852Z,20.65
2022-12-05T02:02:11.595Z,20.65
2022-12-05T02:05:00.013Z,20.62
2022-12-05T02:07:30.162Z,20.66
2022-12-05T02:09:58.496Z,20.66
2022-12-05T02:12:27.189Z,20.65
2022-12-05T02:15:10.550Z,20.64
2022-12-05T02:18:18.810Z,20.60
2022-12-05T02:21:16.151Z,20.61
2022-12-05T02:23:53.232Z,20.69
2022-12-05T02:26:21.308Z,20.71
2022-12-05T02:28:57.221Z,20.67
2022-12-05T02:31:35.160Z,20.66
2022-12-05T02:34:35.579Z,20.63
2022-12-05T02:37:12.863Z,20.63
2022-12-05T02:40:07.648Z,20.61
2022-12-05T02:43:04.072Z,20.61
2022-12-05T02:45:36.206Z,20.62
2022-12-05T02:48:05.748Z,20.66
2022-12-05T02:50:37.915Z,20.66
2022-12-05T02:53:13.411Z,20.67
2022-12-05T02:55:43.545Z,20.63
2022-12-05T02:58:21.998Z,20.65
2022-12-05T03:00:55.640Z,20.63
2022-12-05T03:03:25.925Z,20.60
2022-12-05T03:05:59.999Z,20.54
2022-12-05T03:08:35.797Z,20.55
2022-12-05T03:11:04.687Z,20.57
2022-12-05T03:13:47.407Z,20.56
2022-12-05T03:16:21.740Z,20.52
2022-12-05T03:18:59.174Z,20.45
2022-12-05T03:21:30.351Z,20.43
2022-12-05T03:24:06.619Z,20.43
2022-12-05T03:27:10.303Z,20.43
2022-12-05T03:29:47.780Z,20.47
2022-12-05T03:32:30.711Z,20.41
2022-12-05T03:35:11.472Z,20.37
2022-12-05T03:37:47.942Z,20.36
2022-12-05T03:40:34.842Z,20.40
2022-12-05T03:43:11.722Z,20.31
2022-12-05T03:45:50.462Z,20.32
2022-12-05T03:48:32.846Z,20.31
2022-12-05T03:51:03.680Z,20.27
2022-12-05T03:53:42.693Z,20.24
2022-12-05T03:56:14.667Z,20.20
2022-12-05T03:58:59.396Z,20.13
2022-12-05T04:01:30.781Z,20.11
2022-12-05T04:04:08.676Z,20.08
2022-12-05T04:06:39.524Z,19.97
2022-12-05T04:09:22.980Z,19.99
2022-12-05T04:11:57.875Z,19.97
2022-12-05T04:14:32.136Z,19.94
2022-12-05T04:17:07.028Z,19.93
2022-12-05T04:19:43.872Z,19.96
2022-12-05T04:22:12.078Z,19.96
2022-12-05T04:24:40.158Z,19.92
2022-12-05T04:27:36.473Z,19.89
2022-12-05T04:30:13.069Z,19.87
2022-12-05T04:32:50.433Z,19.84
2022-12-05T04:35:24.599Z,19.87
2022-12-05T04:37:58.863Z,19.87
2022-12-05T04:40:38.540Z,19.81
2022-12-05T04:43:09.485Z,19.74
2022-12-05T04:45:39.764Z,19.67
2022-12-05T04:48:14.363Z,19.67
2022-12-05T04:50:46.775Z,19.65
2022-12-05T04:53:17.304Z,19.65
2022-12-05T04:55:49.633Z,19.63
2022-12-05T04:58:24.116Z,19.60
2022-12-05T05:01:13.044Z,19.59
2022-12-05T05:04:01.592Z,19.59
2022-12-05T05:06:29.873Z,19.56
2022-12-05T05:08:58.767Z,19.49
2022-12-05T05:11:29.192Z,19.50
2022-12-05T05:13:57.579Z,19.51
2022-12-05T05:16:36.109Z,19.46
2022-12-05T05:19:06.472Z,19.43
2022-12-05T05:21:40.541Z,19.43
2022-12-05T05:24:10.564Z,19.39
2022-12-05T05:26:40.637Z,19.39
2022-12-05T05:29:09.680Z,19.36
2022-12-05T05:31:39.073Z,19.35
2022-12-05T05:34:09.754Z,19.36
2022-12-05T05:36:39.234Z,19.36
2022-12-05T05:39:12.847Z,19.36
2022-12-05T05:41:41.415Z,19.33
2022-12-05T05:44:10.523Z,19.31
2022-12-05T05:46:39.305Z,19.29
2022-12-05T05:49:07.489Z,19.31
2022-12-05T05:51:35.562Z,19.29
2022-12-05T05:54:03.849Z,19.28
2022-12-05T05:56:32.028Z,19.29
2022-12-05T05:59:03.106Z,19.30
2022-12-05T06:01:31.858Z,19.30
2022-12-05T06:04:00.150Z,19.33
2022-12-05T06:06:28.440Z,19.39
2022-12-05T06:08:56.798Z,19.35
2022-12-05T06:11:27.206Z,19.38
2022-12-05T06:13:56.860Z,19.40
2022-12-05T06:16:25.656Z,19.36
2022-12-05T06:18:54.437Z,19.39
2022-12-05T06:21:23.527Z,19.34
2022-12-05T06:23:51.601Z,19.32
2022-12-05T06:26:21.585Z,19.29
2022-12-05T06:28:50.442Z,19.28
2022-12-05T06:31:21.183Z,19.26
2022-12-05T06:33:49.737Z,19.24
2022-12-05T06:36:21.178Z,19.25
2022-12-05T06:38:49.273Z,19.23
2022-12-05T06:41:19.952Z,19.23
2022-12-05T06:43:48.238Z,19.18
2022-12-05T06:46:16.756Z,19.09
2022-12-05T06:48:44.954Z,19.12
2022-12-05T06:51:17.118Z,19.15
2022-12-05T06:53:45.714Z,19.11
2022-12-05T06:56:17.868Z,19.17
2022-12-05T06:58:48.928Z,19.21
2022-12-05T07:01:22.480Z,19.22
2022-12-05T07:03:50.908Z,19.24
2022-12-05T07:06:19.080Z,19.25
2022-12-05T07:08:47.207Z,19.27
2022-12-05T07:11:15.297Z,19.31
2022-12-05T07:13:43.526Z,19.32
2022-12-05T07:16:11.869Z,19.32
2022-12-05T07:18:40.182Z,19.41
2022-12-05T07:21:13.642Z,19.47
2022-12-05T07:23:44.423Z,19.59
2022-12-05T07:26:16.928Z,19.68
2022-12-05T07:28:45.374Z,19.79
2022-12-05T07:31:17.324Z,19.86
2022-12-05T07:33:46.309Z,19.93
2022-12-05T07:36:20.741Z,20.04
2022-12-05T07:38:48.843Z,20.35
2022-12-05T07:41:23.832Z,20.80
2022-12-05T07:43:56.516Z,21.28
2022-12-05T07:46:26.102Z,21.59
2022-12-05T07:48:54.504Z,21.85
2022-12-05T07:51:23.232Z,22.09
2022-12-05T07:53:52.847Z,22.27
2022-12-05T07:56:21.436Z,22.39
2022-12-05T07:58:51.169Z,22.54
2022-12-05T08:01:25.318Z,22.65
2022-12-05T08:03:55.790Z,22.85
2022-12-05T08:06:28.221Z,23.22
2022-12-05T08:08:57.586Z,23.75
2022-12-05T08:11:32.158Z,24.13
2022-12-05T08:14:00.378Z,24.52
2022-12-05T08:16:30.643Z,25.00
2022-12-05T08:19:07.829Z,25.79
2022-12-05T08:21:36.166Z,26.78
2022-12-05T08:24:05.366Z,27.63
2022-12-05T08:26:34.791Z,28.54
2022-12-05T08:29:09.399Z,29.35
2022-12-05T08:31:47.116Z,30.31
2022-12-05T08:34:16.943Z,30.90
2022-12-05T08:36:45.601Z,31.67
2022-12-05T08:39:16.243Z,32.33
2022-12-05T08:41:45.745Z,32.77
2022-12-05T08:44:15.195Z,33.47
2022-12-05T08:46:44.955Z,34.06
2022-12-05T08:49:16.965Z,34.54
2022-12-05T08:51:45.419Z,34.92
2022-12-05T08:54:14.283Z,35.32
2022-12-05T08:56:42.487Z,35.82
2022-12-05T08:59:11.898Z,36.37
2022-12-05T09:01:40.092Z,36.92
2022-12-05T09:04:08.886Z,37.30
2022-12-05T09:06:37.452Z,37.78
2022-12-05T09:09:08.496Z,38.04
2022-12-05T09:11:42.699Z,38.49
2022-12-05T09:14:11.106Z,38.67
2022-12-05T09:16:39.873Z,38.87
2022-12-05T09:19:18.450Z,39.23
2022-12-05T09:21:46.919Z,39.55
2022-12-05T09:24:15.293Z,39.48
2022-12-05T09:26:43.862Z,39.67
2022-12-05T09:29:17.057Z,39.95
2022-12-05T09:31:48.569Z,40.25
2022-12-05T09:34:17.297Z,40.41
2022-12-05T09:36:45.575Z,40.71
2022-12-05T09:39:13.756Z,40.71
2022-12-05T09:42:17.358Z,40.44
2022-12-05T09:45:04.457Z,40.07
2022-12-05T09:47:36.415Z,39.92
2022-12-05T09:50:15.933Z,39.67
2022-12-05T09:52:53.852Z,39.66
2022-12-05T09:55:22.438Z,39.69
2022-12-05T09:57:57.589Z,39.72
2022-12-05T10:00:29.032Z,39.85
2022-12-05T10:03:18.905Z,39.34
2022-12-05T10:05:52.915Z,38.62
2022-12-05T10:08:38.227Z,38.22
2022-12-05T10:11:18.439Z,37.65
2022-12-05T10:14:02.296Z,37.30
2022-12-05T10:16:39.241Z,36.87
2022-12-05T10:19:15.852Z,36.40
2022-12-05T10:21:52.285Z,35.84
2022-12-05T10:24:38.842Z,35.21
2022-12-05T10:27:11.157Z,34.55
2022-12-05T10:29:52.332Z,34.41
2022-12-05T10:32:27.674Z,34.87
2022-12-05T10:35:10.039Z,35.35
2022-12-05T10:37:38.254Z,35.31
2022-12-05T10:40:12.231Z,34.88
2022-12-05T10:42:41.061Z,34.07
2022-12-05T10:45:16.942Z,33.24
2022-12-05T10:47:45.686Z,32.54
2022-12-05T10:50:23.603Z,31.89
2022-12-05T10:52:57.623Z,31.68
2022-12-05T10:55:31.564Z,31.35
2022-12-05T10:58:17.673Z,31.09
2022-12-05T11:00:48.998Z,30.90
2022-12-05T11:03:37.519Z,30.80
2022-12-05T11:06:16.231Z,30.41
2022-12-05T11:09:04.540Z,30.10
2022-12-05T11:11:34.187Z,30.29
2022-12-05T11:14:05.887Z,30.59
2022-12-05T11:16:37.085Z,30.95
2022-12-05T11:19:21.619Z,31.47
2022-12-05T11:21:50.621Z,32.03
2022-12-05T11:24:39.378Z,32.36
2022-12-05T11:27:16.658Z,33.01
2022-12-05T11:29:59.577Z,33.49
2022-12-05T11:32:33.287Z,34.29
2022-12-05T11:35:05.658Z,34.37
2022-12-05T11:38:02.161Z,34.73
2022-12-05T11:41:01.360Z,35.16
2022-12-05T11:43:38.549Z,35.92
2022-12-05T11:46:28.269Z,36.34
2022-12-05T11:49:28.532Z,36.55
2022-12-05T11:52:21.697Z,36.05
2022-12-05T11:55:10.808Z,35.16
2022-12-05T11:57:52.029Z,34.83
2022-12-05T12:00:37.991Z,33.88
2022-12-05T12:04:00.627Z,32.65
2022-12-05T12:06:45.265Z,32.02
2022-12-05T12:09:22.495Z,32.30
2022-12-05T12:12:09.456Z,32.01
2022-12-05T12:15:00.768Z,31.35
2022-12-05T12:17:49.139Z,30.72
2022-12-05T12:20:35.498Z,29.86
2022-12-05T12:23:21.744Z,29.56
2022-12-05T12:26:08.588Z,29.30
2022-12-05T12:28:46.851Z,29.32
2022-12-05T12:31:44.950Z,28.98
2022-12-05T12:34:31.252Z,28.41
2022-12-05T12:37:25.627Z,28.02
2022-12-05T12:40:15.191Z,28.00
2022-12-05T12:43:52.019Z,27.91
2022-12-05T12:46:16.999Z,27.56
2022-12-05T12:49:06.876Z,27.44
2022-12-05T12:51:35.090Z,27.39
2022-12-05T12:54:47.294Z,28.05
2022-12-05T12:57:25.293Z,28.07
2022-12-05T12:59:56.531Z,28.28
2022-12-05T13:02:39.449Z,28.47
2022-12-05T13:05:22.795Z,28.17
2022-12-05T13:07:59.167Z,28.17
2022-12-05T13:10:33.799Z,28.22
2022-12-05T13:13:05.035Z,28.25
2022-12-05T13:15:43.182Z,28.10
2022-12-05T13:18:18.272Z,28.46
2022-12-05T13:20:50.087Z,28.44
2022-12-05T13:23:30.973Z,28.36
2022-12-05T13:26:01.340Z,28.32
2022-12-05T13:28:40.224Z,28.23
2022-12-05T13:31:10.855Z,28.18
2022-12-05T13:33:50.511Z,28.15
2022-12-05T13:36:22.149Z,28.17
2022-12-05T13:39:00.271Z,28.21
2022-12-05T13:41:41.614Z,28.20
2022-12-05T13:44:09.815Z,28.08
2022-12-05T13:46:41.767Z,27.99
2022-12-05T13:49:26.203Z,27.87
2022-12-05T13:51:55.129Z,28.06
2022-12-05T13:54:26.272Z,27.94
2022-12-05T13:56:57.276Z,27.88
2022-12-05T14:00:02.745Z,27.63
2022-12-05T14:02:43.406Z,27.73
2022-12-05T14:05:21.306Z,27.19
2022-12-05T14:07:51.775Z,27.17
2022-12-05T14:10:22.982Z,27.03
2022-12-05T14:12:59.866Z,27.13
2022-12-05T14:15:34.350Z,27.13
2022-12-05T14:18:11.160Z,27.21
2022-12-05T14:21:01.133Z,27.35
2022-12-05T14:23:38.658Z,27.12
2022-12-05T14:26:21.992Z,26.92
2022-12-05T14:29:03.941Z,26.82
2022-12-05T14:31:38.772Z,27.12
2022-12-05T14:34:23.270Z,26.91
2022-12-05T14:37:16.165Z,26.72
2022-12-05T14:39:57.553Z,26.63
2022-12-05T14:42:41.989Z,26.80
2022-12-05T14:45:27.807Z,26.69
2022-12-05T14:47:58.914Z,26.91
2022-12-05T14:50:46.192Z,27.00
2022-12-05T14:53:32.730Z,26.75
2022-12-05T14:56:01.019Z,26.34
2022-12-05T14:58:46.993Z,26.35
2022-12-05T15:01:16.966Z,26.26
2022-12-05T15:04:00.081Z,26.19
2022-12-05T15:06:29.387Z,26.26
2022-12-05T15:09:28.732Z,25.87
2022-12-05T15:11:50.839Z,25.62
2022-12-05T15:14:30.432Z,25.83
2022-12-05T15:17:01.751Z,25.87
2022-12-05T15:19:40.063Z,25.83
2022-12-05T15:22:09.883Z,25.79
2022-12-05T15:24:39.022Z,25.62
2022-12-05T15:27:11.456Z,25.95
2022-12-05T15:29:41.205Z,25.72
2022-12-05T15:32:12.323Z,25.27
2022-12-05T15:35:05.363Z,25.38
2022-12-05T15:38:07.713Z,25.06
2022-12-05T15:40:36.613Z,24.94
2022-12-05T15:43:26.790Z,25.14
2022-12-05T15:46:20.296Z,25.08
2022-12-05T15:48:48.421Z,24.92
2022-12-05T15:51:17.833Z,25.01
2022-12-05T15:54:01.153Z,24.78
2022-12-05T15:56:46.245Z,24.79
2022-12-05T15:59:43.272Z,24.65
2022-12-05T16:02:42.509Z,24.75
2022-12-05T16:05:25.734Z,24.88
2022-12-05T16:07:54.538Z,24.84
2022-12-05T16:10:29.342Z,25.06
2022-12-05T16:13:05.287Z,25.14
2022-12-05T16:15:34.008Z,25.03
2022-12-05T16:18:04.181Z,25.09
2022-12-05T16:20:37.239Z,25.39
2022-12-05T16:23:23.333Z,25.25
2022-12-05T16:25:51.711Z,24.64
2022-12-05T16:28:21.897Z,24.98
2022-12-05T16:31:04.521Z,25.08
2022-12-05T16:33:34.898Z,25.06
2022-12-05T16:36:13.320Z,25.06
2022-12-05T16:38:41.458Z,24.87
2022-12-05T16:41:10.620Z,24.67
2022-12-05T16:43:38.743Z,25.08
2022-12-05T16:46:12.693Z,25.01
2022-12-05T16:48:42.774Z,25.05
2022-12-05T16:51:13.817Z,24.91
2022-12-05T16:53:46.261Z,25.08
2022-12-05T16:56:20.769Z,24.83
2022-12-05T16:58:48.997Z,25.00
2022-12-05T17:01:23.081Z,24.87
2022-12-05T17:03:53.315Z,24.76
2022-12-05T17:06:22.799Z,24.96
2022-12-05T17:08:53.205Z,25.08
2022-12-05T17:11:26.997Z,25.23
2022-12-05T17:13:57.301Z,25.05
2022-12-05T17:16:26.615Z,25.15
2022-12-05T17:18:55.273Z,25.06
2022-12-05T17:21:27.360Z,24.87
2022-12-05T17:23:55.437Z,24.86
2022-12-05T17:26:23.720Z,24.90
2022-12-05T17:28:51.901Z,24.82
2022-12-05T17:31:22.836Z,25.07
2022-12-05T17:33:53.270Z,25.13
2022-12-05T17:36:21.753Z,25.23
2022-12-05T17:38:50.343Z,25.07
2022-12-05T17:41:24.660Z,25.14
2022-12-05T17:43:53.143Z,25.34
2022-12-05T17:46:23.653Z,25.44
2022-12-05T17:48:53.033Z,25.46
2022-12-05T17:51:22.693Z,25.42
2022-12-05T17:53:50.875Z,25.50
2022-12-05T17:56:19.197Z,25.58
2022-12-05T17:58:47.228Z,25.55
2022-12-05T18:01:18.719Z,25.45
2022-12-05T18:03:48.574Z,25.45
2022-12-05T18:06:17.495Z,25.49
2022-12-05T18:08:45.792Z,25.54
2022-12-05T18:11:15.383Z,25.55
2022-12-05T18:13:43.463Z,25.55
2022-12-05T18:16:11.870Z,25.57
2022-12-05T18:18:40.336Z,25.60
2022-12-05T18:21:11.065Z,25.64
2022-12-05T18:23:41.244Z,25.64
2022-12-05T18:26:10.706Z,25.63
2022-12-05T18:28:39.847Z,25.61
2022-12-05T18:31:14.166Z,25.59
2022-12-05T18:33:46.697Z,25.53
2022-12-05T18:36:17.647Z,25.53
2022-12-05T18:38:54.728Z,25.47
2022-12-05T18:41:24.634Z,25.45
2022-12-05T18:43:52.928Z,25.45
2022-12-05T18:46:21.157Z,25.45
2022-12-05T18:48:49.687Z,25.43
2022-12-05T18:51:21.650Z,25.41
2022-12-05T18:53:52.102Z,25.39
2022-12-05T18:56:24.584Z,25.38
2022-12-05T18:59:04.764Z,25.38
2022-12-05T19:01:35.791Z,25.37
2022-12-05T19:04:05.698Z,25.57
2022-12-05T19:06:35.176Z,25.52
2022-12-05T19:09:09.095Z,25.42
2022-12-05T19:11:38.621Z,25.39
2022-12-05T19:14:10.555Z,25.39
2022-12-05T19:16:38.968Z,25.40
2022-12-05T19:19:09.170Z,25.35
2022-12-05T19:21:37.647Z,25.33
2022-12-05T19:24:07.202Z,25.34
2022-12-05T19:26:35.441Z,25.31
2022-12-05T19:29:04.246Z,25.35
2022-12-05T19:31:33.275Z,25.31
2022-12-05T19:34:04.679Z,25.38
2022-12-05T19:36:41.388Z,25.32
2022-12-05T19:39:19.371Z,25.33
2022-12-05T19:41:47.941Z,25.30
2022-12-05T19:44:16.120Z,25.34
2022-12-05T19:46:44.707Z,25.35
2022-12-05T19:49:14.933Z,25.23
2022-12-05T19:51:44.237Z,25.17
2022-12-05T19:54:13.963Z,25.15
2022-12-05T19:56:42.128Z,25.12
2022-12-05T19:59:14.606Z,25.11
2022-12-05T20:01:43.678Z,25.11
2022-12-05T20:04:14.523Z,25.08
2022-12-05T20:06:44.977Z,25.09
2022-12-05T20:09:14.994Z,25.06
2022-12-05T20:11:49.527Z,25.03
2022-12-05T20:14:23.276Z,25.07
2022-12-05T20:16:52.753Z,25.13
2022-12-05T20:19:21.117Z,25.17
2022-12-05T20:21:49.299Z,25.11
2022-12-05T20:24:17.470Z,25.18
2022-12-05T20:26:46.262Z,25.22
2022-12-05T20:29:14.549Z,25.24
2022-12-05T20:31:43.542Z,25.22
2022-12-05T20:34:13.733Z,25.19
2022-12-05T20:36:42.991Z,25.20
2022-12-05T20:39:15.083Z,25.21
2022-12-05T20:41:44.043Z,25.22
2022-12-05T20:44:14.873Z,25.18
2022-12-05T20:46:43.981Z,25.11
2022-12-05T20:49:13.278Z,25.16
2022-12-05T20:51:43.812Z,25.25
2022-12-05T20:54:12.903Z,25.27
2022-12-05T20:56:41.293Z,25.27
2022-12-05T20:59:11.591Z,25.21
2022-12-05T21:01:39.937Z,25.19
2022-12-05T21:04:09.001Z,25.23
2022-12-05T21:06:40.293Z,25.21
2022-12-05T21:09:10.677Z,25.19
2022-12-05T21:11:38.793Z,25.12
2022-12-05T21:14:07.956Z,25.08
2022-12-05T21:16:36.272Z,25.02
2022-12-05T21:19:04.415Z,25.00
2022-12-05T21:21:33.205Z,24.96
2022-12-05T21:24:02.920Z,24.93
2022-12-05T21:26:33.833Z,24.93
2022-12-05T21:29:03.880Z,24.98
2022-12-05T21:31:38.060Z,24.91
2022-12-05T21:34:12.241Z,24.81
2022-12-05T21:36:40.587Z,24.81
2022-12-05T21:39:09.175Z,24.81
2022-12-05T21:41:37.251Z,24.81
2022-12-05T21:44:05.739Z,24.82
2022-12-05T21:46:34.426Z,24.76
2022-12-05T21:49:02.724Z,24.78
2022-12-05T21:51:31.294Z,24.77
2022-12-05T21:53:59.239Z,24.75
2022-12-05T21:56:27.346Z,24.71
2022-12-05T21:58:55.932Z,24.69
2022-12-05T22:01:26.261Z,24.59
2022-12-05T22:03:56.812Z,24.50
2022-12-05T22:06:25.128Z,24.49
2022-12-05T22:08:58.370Z,24.50
2022-12-05T22:11:30.229Z,24.51
2022-12-05T22:13:58.337Z,24.50
2022-12-05T22:16:32.519Z,24.56
2022-12-05T22:19:02.567Z,24.65
2022-12-05T22:21:31.338Z,24.71
2022-12-05T22:23:59.649Z,24.76
2022-12-05T22:26:28.002Z,24.79
2022-12-05T22:28:56.584Z,24.84
2022-12-05T22:31:25.370Z,24.87
2022-12-05T22:33:53.655Z,24.86
2022-12-05T22:36:21.838Z,24.85
2022-12-05T22:38:50.423Z,24.90
2022-12-05T22:41:23.923Z,24.93
2022-12-05T22:44:00.101Z,24.86
2022-12-05T22:46:29.446Z,24.80
2022-12-05T22:48:57.871Z,24.85
2022-12-05T22:51:26.869Z,24.86
2022-12-05T22:53:55.254Z,24.85
2022-12-05T22:56:25.902Z,24.88
2022-12-05T22:58:56.726Z,24.87
2022-12-05T23:01:28.327Z,24.90
2022-12-05T23:03:59.191Z,24.90
2022-12-05T23:06:28.833Z,24.89
2022-12-05T23:08:57.424Z,24.94
2022-12-05T23:11:27.345Z,24.89
2022-12-05T23:13:59.900Z,24.79
2022-12-05T23:16:32.625Z,24.80
2022-12-05T23:19:04.015Z,24.80
2022-12-05T23:21:38.222Z,24.77
2022-12-05T23:24:12.264Z,24.81
2022-12-05T23:26:43.734Z,24.72
2022-12-05T23:29:13.837Z,24.57
2022-12-05T23:31:43.611Z,24.53
2022-12-05T23:34:12.262Z,24.53
2022-12-05T23:36:40.539Z,24.52
2022-12-05T23:39:09.127Z,24.49
2022-12-05T23:41:37.306Z,24.46
2022-12-05T23:44:05.826Z,24.46
2022-12-05T23:46:34.478Z,24.39
2022-12-05T23:49:03.169Z,24.47
2022-12-05T23:51:31.251Z,24.47
2022-12-05T23:54:01.844Z,24.47
2022-12-05T23:56:33.233Z,24.51
2022-12-05T23:59:03.480Z,24.57
